createdAt,value
2018-09-25T00:00:27.616Z,12.52
2018-09-25T00:01:37.670Z,12.45
2018-09-25T00:02:47.784Z,12.4
2018-09-25T00:03:57.865Z,12.45
2018-09-25T00:05:08.067Z,12.41
2018-09-25T00:06:17.857Z,12.4
2018-09-25T00:07:27.998Z,12.37
2018-09-25T00:08:38.074Z,12.47
2018-09-25T00:09:48.155Z,12.43
2018-09-25T00:10:57.973Z,12.38
2018-09-25T00:12:08.046Z,12.38
2018-09-25T00:13:18.127Z,12.36
2018-09-25T00:14:28.198Z,12.31
2018-09-25T00:15:38.264Z,12.33
2018-09-25T00:16:48.397Z,12.31
2018-09-25T00:17:58.483Z,12.29
2018-09-25T00:19:08.361Z,12.25
2018-09-25T00:20:18.438Z,12.28
2018-09-25T00:21:28.519Z,12.28
2018-09-25T00:22:38.588Z,12.33
2018-09-25T00:23:48.445Z,12.2
2018-09-25T00:24:58.514Z,12.26
2018-09-25T00:26:08.057Z,12.2
2018-09-25T00:27:17.877Z,12.26
2018-09-25T00:28:27.418Z,12.22
2018-09-25T00:29:37.210Z,12.29
2018-09-25T00:30:47.312Z,12.26
2018-09-25T00:31:57.388Z,12.29
2018-09-25T00:33:07.476Z,12.2
2018-09-25T00:34:17.565Z,12.25
2018-09-25T00:35:27.631Z,12.34
2018-09-25T00:36:37.716Z,12.37
2018-09-25T00:37:47.781Z,12.23
2018-09-25T00:38:57.918Z,12.23
2018-09-25T00:40:11.076Z,12.29
2018-09-25T00:41:20.892Z,12.25
2018-09-25T00:42:31.015Z,12.15
2018-09-25T00:43:41.066Z,12.15
2018-09-25T00:44:51.138Z,12.16
2018-09-25T00:46:01.210Z,12.13
2018-09-25T00:47:11.528Z,12.11
2018-09-25T00:48:21.811Z,12.11
2018-09-25T00:49:31.618Z,12.16
2018-09-25T00:50:41.730Z,12.08
2018-09-25T00:51:51.648Z,12.15
2018-09-25T00:53:01.735Z,12.07
2018-09-25T00:54:11.858Z,12.05
2018-09-25T00:55:21.656Z,12.11
2018-09-25T00:56:31.715Z,12.07
2018-09-25T00:57:41.774Z,12.05
2018-09-25T00:58:51.832Z,12.04
2018-09-25T01:00:03.655Z,12
2018-09-25T01:01:13.731Z,12.03
2018-09-25T01:02:23.819Z,12
2018-09-25T01:03:33.883Z,12.04
2018-09-25T01:04:43.959Z,11.97
2018-09-25T01:05:54.029Z,11.95
2018-09-25T01:07:04.151Z,11.97
2018-09-25T01:08:14.212Z,11.91
2018-09-25T01:09:24.319Z,11.89
2018-09-25T01:10:34.411Z,11.95
2018-09-25T01:11:44.487Z,11.94
2018-09-25T01:12:54.589Z,11.85
2018-09-25T01:14:04.652Z,11.84
2018-09-25T01:15:14.714Z,11.86
2018-09-25T01:16:24.522Z,11.85
2018-09-25T01:17:34.584Z,11.82
2018-09-25T01:18:44.400Z,11.78
2018-09-25T01:19:54.458Z,11.79
2018-09-25T01:21:04.588Z,11.79
2018-09-25T01:22:14.649Z,11.76
2018-09-25T01:23:24.759Z,11.79
2018-09-25T01:24:34.561Z,11.79
2018-09-25T01:25:44.363Z,11.7
2018-09-25T01:26:54.503Z,11.78
2018-09-25T01:28:04.588Z,11.75
2018-09-25T01:29:14.474Z,11.71
2018-09-25T01:30:24.555Z,11.71
2018-09-25T01:31:34.360Z,11.71
2018-09-25T01:32:44.462Z,11.7
2018-09-25T01:33:54.264Z,11.7
2018-09-25T01:35:04.172Z,11.64
2018-09-25T01:36:14.233Z,11.67
2018-09-25T01:37:24.361Z,11.73
2018-09-25T01:38:34.409Z,11.7
2018-09-25T01:39:44.466Z,11.67
2018-09-25T01:40:54.592Z,11.57
2018-09-25T01:42:04.637Z,11.68
2018-09-25T01:43:14.716Z,11.61
2018-09-25T01:44:24.806Z,11.52
2018-09-25T01:45:34.874Z,11.61
2018-09-25T01:46:44.943Z,11.48
2018-09-25T01:47:55.062Z,11.51
2018-09-25T01:49:07.385Z,11.51
2018-09-25T01:50:17.474Z,11.48
2018-09-25T01:51:27.587Z,11.52
2018-09-25T01:52:37.677Z,11.45
2018-09-25T01:53:47.750Z,11.56
2018-09-25T01:54:57.822Z,11.52
2018-09-25T01:56:09.092Z,11.49
2018-09-25T01:57:20.104Z,11.51
2018-09-25T01:58:33.554Z,11.42
2018-09-25T01:59:45.900Z,11.48
2018-09-25T02:00:55.441Z,11.49
2018-09-25T02:02:05.631Z,11.57
2018-09-25T02:03:15.434Z,11.45
2018-09-25T02:04:24.979Z,11.49
2018-09-25T02:05:34.783Z,11.49
2018-09-25T02:06:44.953Z,11.45
2018-09-25T02:07:55.017Z,11.42
2018-09-25T02:09:05.086Z,11.45
2018-09-25T02:10:14.943Z,11.42
2018-09-25T02:11:25.008Z,11.43
2018-09-25T02:12:35.081Z,11.42
2018-09-25T02:13:45.147Z,11.35
2018-09-25T02:14:55.209Z,11.35
2018-09-25T02:16:05.284Z,11.39
2018-09-25T02:17:15.404Z,11.42
2018-09-25T02:18:25.459Z,11.34
2018-09-25T02:19:35.528Z,11.35
2018-09-25T02:20:45.603Z,11.35
2018-09-25T02:21:55.685Z,11.34
2018-09-25T02:23:06.605Z,11.35
2018-09-25T02:24:16.694Z,11.41
2018-09-25T02:25:26.511Z,11.35
2018-09-25T02:26:36.320Z,11.38
2018-09-25T02:27:46.121Z,11.42
2018-09-25T02:28:55.697Z,11.33
2018-09-25T02:30:08.122Z,11.41
2018-09-25T02:31:18.206Z,11.39
2018-09-25T02:32:28.288Z,11.34
2018-09-25T02:33:38.107Z,11.39
2018-09-25T02:34:48.173Z,11.35
2018-09-25T02:35:58.318Z,11.27
2018-09-25T02:37:08.410Z,11.28
2018-09-25T02:38:18.580Z,11.24
2018-09-25T02:39:28.660Z,11.26
2018-09-25T02:40:38.719Z,11.21
2018-09-25T02:41:48.785Z,11.26
2018-09-25T02:42:58.831Z,11.21
2018-09-25T02:44:08.668Z,11.21
2018-09-25T02:45:18.526Z,11.2
2018-09-25T02:46:28.617Z,11.26
2018-09-25T02:47:38.688Z,11.18
2018-09-25T02:48:48.761Z,11.35
2018-09-25T02:49:58.845Z,11.23
2018-09-25T02:51:08.936Z,11.18
2018-09-25T02:52:19.015Z,11.2
2018-09-25T02:53:28.839Z,11.2
2018-09-25T02:54:38.903Z,11.21
2018-09-25T02:55:48.707Z,11.16
2018-09-25T02:56:58.764Z,11.09
2018-09-25T02:58:09.241Z,11.13
2018-09-25T02:59:19.339Z,11.16
2018-09-25T03:00:29.144Z,11.12
2018-09-25T03:01:39.200Z,11.18
2018-09-25T03:34:08.794Z,9.19
2018-09-25T03:35:18.870Z,9.04
2018-09-25T03:36:28.917Z,9.17
2018-09-25T03:37:38.467Z,9.16
2018-09-25T03:38:48.566Z,9.17
2018-09-25T03:39:58.653Z,9.23
2018-09-25T03:41:08.737Z,9.26
2018-09-25T03:42:18.815Z,9.26
2018-09-25T03:43:28.898Z,9.39
2018-09-25T03:44:38.974Z,9.56
2018-09-25T03:45:49.049Z,9.64
2018-09-25T03:46:59.125Z,9.66
2018-09-25T03:48:10.712Z,9.74
2018-09-25T03:49:20.814Z,9.85
2018-09-25T03:50:30.630Z,9.96
2018-09-25T03:51:40.435Z,9.99
2018-09-25T03:52:50.489Z,10.08
2018-09-25T03:54:01.412Z,10.17
2018-09-25T03:55:11.521Z,10.21
2018-09-25T03:56:21.630Z,10.26
2018-09-25T03:57:31.704Z,10.28
2018-09-25T03:58:41.503Z,10.26
2018-09-25T03:59:51.595Z,10.33
2018-09-25T04:01:01.693Z,10.32
2018-09-25T04:02:11.817Z,10.38
2018-09-25T04:03:21.890Z,10.44
2018-09-25T04:04:31.428Z,10.39
2018-09-25T04:05:41.483Z,10.41
2018-09-25T04:06:51.590Z,10.44
2018-09-25T04:08:02.499Z,10.54
2018-09-25T04:09:12.581Z,10.47
2018-09-25T04:10:22.655Z,10.41
2018-09-25T04:11:32.728Z,10.46
2018-09-25T04:12:42.825Z,10.54
2018-09-25T04:13:52.628Z,10.52
2018-09-25T04:15:03.047Z,10.58
2018-09-25T04:16:13.146Z,10.51
2018-09-25T04:17:23.214Z,10.51
2018-09-25T04:18:33.051Z,10.47
2018-09-25T04:19:43.165Z,10.58
2018-09-25T04:20:53.222Z,10.47
2018-09-25T04:22:03.288Z,10.61
2018-09-25T04:23:13.383Z,10.59
2018-09-25T04:24:23.468Z,10.55
2018-09-25T04:25:33.544Z,10.63
2018-09-25T04:26:44.128Z,10.49
2018-09-25T04:27:53.922Z,10.51
2018-09-25T04:29:04.028Z,10.57
2018-09-25T04:30:14.099Z,10.61
2018-09-25T04:31:24.214Z,10.57
2018-09-25T04:32:34.289Z,10.59
2018-09-25T04:33:44.098Z,10.55
2018-09-25T04:34:54.221Z,10.58
2018-09-25T04:36:04.035Z,10.58
2018-09-25T04:37:14.388Z,10.49
2018-09-25T04:38:24.389Z,10.52
2018-09-25T04:39:34.200Z,10.57
2018-09-25T04:40:44.279Z,10.47
2018-09-25T04:41:54.343Z,10.47
2018-09-25T04:43:04.637Z,10.49
2018-09-25T04:44:14.515Z,10.57
2018-09-25T04:45:24.313Z,10.59
2018-09-25T04:46:33.847Z,10.61
2018-09-25T04:47:43.768Z,10.63
2018-09-25T04:48:53.617Z,10.61
2018-09-25T04:50:05.684Z,10.63
2018-09-25T04:51:15.502Z,10.52
2018-09-25T04:52:25.566Z,10.65
2018-09-25T04:53:35.750Z,10.67
2018-09-25T04:54:45.797Z,10.55
2018-09-25T04:55:55.875Z,10.52
2018-09-25T04:57:06.223Z,10.69
2018-09-25T04:58:16.604Z,10.7
2018-09-25T04:59:26.410Z,10.7
2018-09-25T05:00:36.482Z,10.7
2018-09-25T05:01:46.609Z,10.73
2018-09-25T05:02:56.678Z,10.73
2018-09-25T05:04:06.803Z,10.76
2018-09-25T05:05:16.883Z,10.75
2018-09-25T05:06:27.004Z,10.73
2018-09-25T05:07:37.135Z,10.87
2018-09-25T05:08:47.219Z,10.84
2018-09-25T05:09:57.379Z,10.83
2018-09-25T05:11:08.168Z,10.92
2018-09-25T05:12:18.493Z,10.8
2018-09-25T05:13:29.586Z,10.9
2018-09-25T05:14:39.588Z,10.91
2018-09-25T05:15:49.834Z,10.87
2018-09-25T05:16:59.390Z,10.85
2018-09-25T05:18:10.080Z,10.94
2018-09-25T05:19:20.369Z,11.06
2018-09-25T05:20:30.162Z,10.94
2018-09-25T05:21:40.241Z,11
2018-09-25T05:22:50.094Z,11
2018-09-25T05:24:00.180Z,10.98
2018-09-25T05:25:10.302Z,11.08
2018-09-25T05:26:20.197Z,11.1
2018-09-25T05:27:30.343Z,11.09
2018-09-25T05:28:40.413Z,11.1
2018-09-25T05:29:50.545Z,11.12
2018-09-25T05:31:00.657Z,11.16
2018-09-25T05:32:10.744Z,11.27
2018-09-25T05:33:20.830Z,11.21
2018-09-25T05:34:30.999Z,11.31
2018-09-25T05:35:41.094Z,11.3
2018-09-25T05:36:51.209Z,11.38
2018-09-25T05:38:02.983Z,11.33
2018-09-25T05:39:13.064Z,11.38
2018-09-25T05:40:22.924Z,11.42
2018-09-25T05:41:32.535Z,11.38
2018-09-25T05:42:41.845Z,11.43
2018-09-25T05:43:51.914Z,11.41
2018-09-25T05:45:01.986Z,11.51
2018-09-25T05:46:12.058Z,11.56
2018-09-25T05:47:21.861Z,11.52
2018-09-25T05:48:32.490Z,11.6
2018-09-25T05:49:43.056Z,11.52
2018-09-25T05:50:53.116Z,11.59
2018-09-25T05:52:03.202Z,11.67
2018-09-25T05:53:13.264Z,11.67
2018-09-25T05:54:23.131Z,11.71
2018-09-25T05:55:33.008Z,11.67
2018-09-25T05:56:43.339Z,11.73
2018-09-25T05:57:53.526Z,11.68
2018-09-25T05:59:05.584Z,11.79
2018-09-25T06:00:15.756Z,11.81
2018-09-25T06:01:25.833Z,11.82
2018-09-25T06:02:35.934Z,11.78
2018-09-25T06:03:46.050Z,11.81
2018-09-25T06:04:55.847Z,11.89
2018-09-25T06:06:07.277Z,11.98
2018-09-25T06:07:17.369Z,11.91
2018-09-25T06:08:27.491Z,11.89
2018-09-25T06:09:37.852Z,12.05
2018-09-25T06:10:47.895Z,12.04
2018-09-25T06:11:57.990Z,12.07
2018-09-25T06:13:07.804Z,12.15
2018-09-25T06:14:17.863Z,12.19
2018-09-25T06:15:27.713Z,12.11
2018-09-25T06:16:37.801Z,12.22
2018-09-25T06:17:47.400Z,12.23
2018-09-25T06:18:57.217Z,12.38
2018-09-25T06:20:07.273Z,12.31
2018-09-25T06:21:17.354Z,12.36
2018-09-25T06:22:27.516Z,12.29
2018-09-25T06:23:37.608Z,12.36
2018-09-25T06:24:47.149Z,12.45
2018-09-25T06:25:57.233Z,12.45
2018-09-25T06:27:07.112Z,12.47
2018-09-25T06:28:16.952Z,12.4
2018-09-25T06:29:26.768Z,12.45
2018-09-25T06:30:36.884Z,12.53
2018-09-25T06:31:46.953Z,12.58
2018-09-25T06:32:56.759Z,12.56
2018-09-25T06:34:06.828Z,12.58
2018-09-25T06:35:16.370Z,12.62
2018-09-25T06:36:26.211Z,12.69
2018-09-25T06:37:36.300Z,12.78
2018-09-25T06:38:46.490Z,12.65
2018-09-25T06:39:56.659Z,12.81
2018-09-25T06:41:07.051Z,12.86
2018-09-25T06:42:16.917Z,12.76
2018-09-25T06:43:26.985Z,12.92
2018-09-25T06:44:37.059Z,12.91
2018-09-25T06:45:46.631Z,12.88
2018-09-25T06:46:56.719Z,12.88
2018-09-25T06:48:08.980Z,13.03
2018-09-25T06:49:19.050Z,12.98
2018-09-25T06:50:29.122Z,13.03
2018-09-25T06:51:39.167Z,13.02
2018-09-25T06:52:49.221Z,13.07
2018-09-25T06:53:59.022Z,13.07
2018-09-25T06:55:09.238Z,13.1
2018-09-25T06:56:19.580Z,13.13
2018-09-25T06:57:29.660Z,13.11
2018-09-25T06:58:39.737Z,13.14
2018-09-25T06:59:50.591Z,13.19
2018-09-25T07:01:03.124Z,13.2
2018-09-25T07:02:13.317Z,13.32
2018-09-25T07:03:23.611Z,13.24
2018-09-25T07:04:33.681Z,13.37
2018-09-25T07:05:43.808Z,13.29
2018-09-25T07:06:53.883Z,13.31
2018-09-25T07:08:05.720Z,13.48
2018-09-25T07:09:15.781Z,13.51
2018-09-25T07:10:26.442Z,13.51
2018-09-25T07:11:37.411Z,13.54
2018-09-25T07:12:46.971Z,13.55
2018-09-25T07:13:57.028Z,13.57
2018-09-25T07:15:06.559Z,13.53
2018-09-25T07:16:16.684Z,13.58
2018-09-25T07:17:26.847Z,13.55
2018-09-25T07:18:36.738Z,13.7
2018-09-25T07:19:46.816Z,13.73
2018-09-25T07:20:56.867Z,13.81
2018-09-25T07:22:06.929Z,13.94
2018-09-25T07:23:17.365Z,13.88
2018-09-25T07:24:27.538Z,13.91
2018-09-25T07:25:37.643Z,13.99
2018-09-25T07:26:47.713Z,14.15
2018-09-25T07:27:57.782Z,14.09
2018-09-25T07:29:10.151Z,14.19
2018-09-25T07:30:20.215Z,14.24
2018-09-25T07:31:30.392Z,14.3
2018-09-25T07:32:39.943Z,14.33
2018-09-25T07:33:49.752Z,14.3
2018-09-25T07:34:59.808Z,14.26
2018-09-25T07:36:09.885Z,14.28
2018-09-25T07:37:19.964Z,14.39
2018-09-25T07:38:29.773Z,14.44
2018-09-25T07:39:39.732Z,14.39
2018-09-25T07:40:49.790Z,14.45
2018-09-25T07:41:59.856Z,14.52
2018-09-25T07:43:09.925Z,14.51
2018-09-25T07:44:19.481Z,14.64
2018-09-25T07:45:29.792Z,14.53
2018-09-25T07:46:39.608Z,14.67
2018-09-25T07:47:49.672Z,14.7
2018-09-25T07:48:59.754Z,14.86
2018-09-25T07:50:09.561Z,14.86
2018-09-25T07:51:19.727Z,14.94
2018-09-25T07:52:29.801Z,15.02
2018-09-25T07:53:39.871Z,15.1
2018-09-25T07:54:49.700Z,15.1
2018-09-25T07:55:58.984Z,15.18
2018-09-25T07:57:10.369Z,14.98
2018-09-25T07:58:20.226Z,14.83
2018-09-25T07:59:30.031Z,14.66
2018-09-25T08:00:40.140Z,14.7
2018-09-25T08:01:50.237Z,14.66
2018-09-25T08:03:01.868Z,14.85
2018-09-25T08:04:12.149Z,14.71
2018-09-25T08:05:21.948Z,14.77
2018-09-25T08:06:32.018Z,15.02
2018-09-25T08:07:42.081Z,15.12
2018-09-25T08:08:52.292Z,15.19
2018-09-25T08:10:03.001Z,15.43
2018-09-25T08:11:13.058Z,15.55
2018-09-25T08:12:23.133Z,15.75
2018-09-25T08:13:33.193Z,15.83
2018-09-25T08:14:43.266Z,15.96
2018-09-25T08:15:53.396Z,16.07
2018-09-25T08:17:03.490Z,16.3
2018-09-25T08:18:13.682Z,16.3
2018-09-25T08:19:23.809Z,16.39
2018-09-25T08:20:33.648Z,16.27
2018-09-25T08:21:43.882Z,16.34
2018-09-25T08:22:53.969Z,16.07
2018-09-25T08:24:04.053Z,15.88
2018-09-25T08:25:14.113Z,15.81
2018-09-25T08:26:24.194Z,15.63
2018-09-25T08:27:34.270Z,15.63
2018-09-25T08:28:44.067Z,15.75
2018-09-25T08:29:54.430Z,16.02
2018-09-25T08:31:04.246Z,16.22
2018-09-25T08:32:14.433Z,16.39
2018-09-25T08:33:24.508Z,16.3
2018-09-25T08:34:34.320Z,16.26
2018-09-25T08:35:44.126Z,16.3
2018-09-25T08:36:54.264Z,16.34
2018-09-25T08:38:04.420Z,16.33
2018-09-25T08:39:14.897Z,16.42
2018-09-25T08:40:25.439Z,16.59
2018-09-25T08:41:35.540Z,16.7
2018-09-25T08:42:45.627Z,16.73
2018-09-25T08:43:55.701Z,16.49
2018-09-25T08:45:05.762Z,16.45
2018-09-25T08:46:15.842Z,16.39
2018-09-25T08:47:25.914Z,16.42
2018-09-25T08:48:35.733Z,16.42
2018-09-25T08:49:45.822Z,16.69
2018-09-25T08:50:55.886Z,16.77
2018-09-25T08:52:05.960Z,16.95
2018-09-25T08:53:16.058Z,17.1
2018-09-25T08:54:26.213Z,17.31
2018-09-25T08:55:36.341Z,17.4
2018-09-25T08:56:46.414Z,17.55
2018-09-25T08:57:56.496Z,17.74
2018-09-25T08:59:06.561Z,17.73
2018-09-25T09:00:16.474Z,17.73
2018-09-25T09:01:26.548Z,17.8
2018-09-25T09:02:36.369Z,17.98
2018-09-25T09:03:46.431Z,18.06
2018-09-25T09:04:56.229Z,18.08
2018-09-25T09:06:07.254Z,18.21
2018-09-25T09:07:17.339Z,18.19
2018-09-25T09:08:27.526Z,18.42
2018-09-25T09:09:37.468Z,18.45
2018-09-25T09:10:47.539Z,18.47
2018-09-25T09:11:57.598Z,18.16
2018-09-25T09:13:07.708Z,18.24
2018-09-25T09:14:17.779Z,18.31
2018-09-25T09:15:27.867Z,18.5
2018-09-25T09:16:37.945Z,18.72
2018-09-25T09:17:48.052Z,18.56
2018-09-25T09:18:58.126Z,18.2
2018-09-25T09:20:09.368Z,17.88
2018-09-25T09:21:19.916Z,17.9
2018-09-25T09:22:29.966Z,17.66
2018-09-25T09:23:39.877Z,17.42
2018-09-25T09:24:49.944Z,17.55
2018-09-25T09:25:59.502Z,17.54
2018-09-25T09:27:09.308Z,17.71
2018-09-25T09:28:19.399Z,17.79
2018-09-25T09:29:29.472Z,17.94
2018-09-25T09:30:39.563Z,18.02
2018-09-25T09:31:49.638Z,17.9
2018-09-25T09:32:59.192Z,17.66
2018-09-25T09:34:08.983Z,17.52
2018-09-25T09:35:18.785Z,17.38
2018-09-25T09:36:28.636Z,17.73
2018-09-25T09:37:38.536Z,17.87
2018-09-25T09:38:48.616Z,17.87
2018-09-25T09:39:58.683Z,17.99
2018-09-25T09:41:08.418Z,18.11
2018-09-25T09:42:18.666Z,18.19
2018-09-25T09:43:28.812Z,18.27
2018-09-25T09:44:38.619Z,18.34
2018-09-25T09:45:48.697Z,18.2
2018-09-25T09:46:58.763Z,18.13
2018-09-25T09:48:09.475Z,17.9
2018-09-25T09:49:19.550Z,17.92
2018-09-25T09:50:29.802Z,17.79
2018-09-25T09:51:40.328Z,18.01
2018-09-25T09:52:50.390Z,18.19
2018-09-25T09:54:00.315Z,18.29
2018-09-25T09:55:10.389Z,18.53
2018-09-25T09:56:20.275Z,18.79
2018-09-25T09:57:30.562Z,19.02
2018-09-25T09:58:40.624Z,19.32
2018-09-25T09:59:50.573Z,19.55
2018-09-25T10:01:00.657Z,19.61
2018-09-25T10:02:10.745Z,19.79
2018-09-25T10:03:20.815Z,19.34
2018-09-25T10:04:30.883Z,19.12
2018-09-25T10:05:40.967Z,18.84
2018-09-25T10:06:51.077Z,18.76
2018-09-25T10:08:01.603Z,18.74
2018-09-25T10:09:11.691Z,18.6
2018-09-25T10:10:21.763Z,18.86
2018-09-25T10:11:31.827Z,18.71
2018-09-25T10:12:41.759Z,18.27
2018-09-25T10:13:51.934Z,18.05
2018-09-25T10:15:02.020Z,17.71
2018-09-25T10:16:12.106Z,17.32
2018-09-25T10:17:22.210Z,16.92
2018-09-25T10:18:32.276Z,16.81
2018-09-25T10:19:42.077Z,17.17
2018-09-25T10:20:51.900Z,17.31
2018-09-25T10:22:01.970Z,17.66
2018-09-25T10:23:12.043Z,18.02
2018-09-25T10:24:22.232Z,18.59
2018-09-25T10:25:32.333Z,18.96
2018-09-25T10:26:42.405Z,19.46
2018-09-25T10:27:52.494Z,19.46
2018-09-25T10:29:02.743Z,19.38
2018-09-25T10:30:12.562Z,19.4
2018-09-25T10:31:22.658Z,19.4
2018-09-25T10:32:32.838Z,19.31
2018-09-25T10:33:42.687Z,19.1
2018-09-25T10:34:52.876Z,18.96
2018-09-25T10:36:02.953Z,19.1
2018-09-25T10:37:12.748Z,19.05
2018-09-25T10:38:22.920Z,19.12
2018-09-25T10:39:32.981Z,19.19
2018-09-25T10:40:43.070Z,19.32
2018-09-25T10:41:53.158Z,19.19
2018-09-25T10:43:03.336Z,19.1
2018-09-25T10:44:13.202Z,18.93
2018-09-25T10:45:23.294Z,18.91
2018-09-25T10:46:33.369Z,18.87
2018-09-25T10:47:43.453Z,18.78
2018-09-25T10:48:53.546Z,18.68
2018-09-25T10:50:05.574Z,18.57
2018-09-25T10:51:15.829Z,18.47
2018-09-25T10:52:25.899Z,18.24
2018-09-25T10:53:35.986Z,18.11
2018-09-25T10:54:45.817Z,18.06
2018-09-25T10:55:55.925Z,18.21
2018-09-25T10:57:06.881Z,18.56
2018-09-25T10:58:16.987Z,18.84
2018-09-25T10:59:27.067Z,19.49
2018-09-25T11:00:37.255Z,19.79
2018-09-25T11:01:47.363Z,19.63
2018-09-25T11:02:57.878Z,19.64
2018-09-25T11:04:08.416Z,19.46
2018-09-25T11:05:18.493Z,19.09
2018-09-25T11:06:28.366Z,19.05
2018-09-25T11:07:38.458Z,18.82
2018-09-25T11:08:48.542Z,18.61
2018-09-25T11:09:58.118Z,18.49
2018-09-25T11:11:08.364Z,18.56
2018-09-25T11:12:18.445Z,18.54
2018-09-25T11:13:28.543Z,18.94
2018-09-25T11:14:38.643Z,19.16
2018-09-25T11:15:48.750Z,19.55
2018-09-25T11:16:58.860Z,20
2018-09-25T11:18:08.723Z,20.04
2018-09-25T11:19:18.859Z,19.83
2018-09-25T11:20:28.945Z,19.74
2018-09-25T11:21:39.118Z,19.49
2018-09-25T11:22:49.194Z,19.25
2018-09-25T11:23:59.314Z,18.97
2018-09-25T11:25:09.384Z,18.78
2018-09-25T11:26:18.958Z,18.49
2018-09-25T11:27:29.081Z,18.16
2018-09-25T11:28:39.291Z,18.14
2018-09-25T11:29:49.438Z,18.06
2018-09-25T11:30:59.318Z,18.14
2018-09-25T11:32:09.402Z,18.2
2018-09-25T11:33:19.499Z,18.51
2018-09-25T11:34:29.596Z,18.59
2018-09-25T11:35:39.704Z,18.69
2018-09-25T11:36:49.819Z,18.86
2018-09-25T11:37:59.960Z,18.84
2018-09-25T11:39:10.054Z,18.86
2018-09-25T11:40:19.873Z,19.07
2018-09-25T11:41:30.234Z,18.96
2018-09-25T11:42:40.390Z,18.81
2018-09-25T11:43:50.509Z,18.76
2018-09-25T11:45:00.799Z,18.87
2018-09-25T11:46:10.733Z,18.82
2018-09-25T11:47:21.076Z,18.94
2018-09-25T11:48:31.145Z,19.31
2018-09-25T11:49:41.026Z,19.61
2018-09-25T11:50:51.166Z,19.86
2018-09-25T11:52:01.254Z,19.71
2018-09-25T11:53:11.092Z,19.79
2018-09-25T11:54:21.185Z,19.78
2018-09-25T11:55:31.293Z,19.65
2018-09-25T11:56:41.130Z,19.52
2018-09-25T11:57:50.679Z,19.95
2018-09-25T11:59:00.762Z,20.1
2018-09-25T12:00:11.545Z,20.11
2018-09-25T12:01:21.753Z,20
2018-09-25T12:02:32.611Z,20.04
2018-09-25T12:03:43.564Z,19.93
2018-09-25T12:04:54.070Z,20.01
2018-09-25T12:06:04.166Z,20.12
2018-09-25T12:07:14.235Z,20.2
2018-09-25T12:08:23.796Z,20.46
2018-09-25T12:09:33.618Z,20.48
2018-09-25T12:10:43.698Z,20.68
2018-09-25T12:11:53.603Z,20.67
2018-09-25T12:13:04.602Z,20.54
2018-09-25T12:14:14.479Z,20.37
2018-09-25T12:15:24.096Z,20.01
2018-09-25T12:16:33.949Z,19.57
2018-09-25T12:17:43.564Z,19.25
2018-09-25T12:18:53.720Z,18.9
2018-09-25T12:20:04.130Z,18.51
2018-09-25T12:21:14.204Z,18.2
2018-09-25T12:22:24.294Z,18.06
2018-09-25T12:23:34.681Z,17.95
2018-09-25T12:24:44.811Z,17.92
2018-09-25T12:25:54.360Z,17.84
2018-09-25T12:27:03.926Z,18.34
2018-09-25T12:28:14.061Z,18.74
2018-09-25T12:29:24.151Z,19.1
2018-09-25T12:30:34.048Z,19.17
2018-09-25T12:31:43.895Z,19.61
2018-09-25T12:32:54.174Z,19.95
2018-09-25T12:34:04.475Z,20.25
2018-09-25T12:35:14.350Z,20.29
2018-09-25T12:36:24.436Z,20.23
2018-09-25T12:37:34.536Z,20.22
2018-09-25T12:38:44.582Z,20.16
2018-09-25T12:39:54.677Z,19.95
2018-09-25T12:41:04.971Z,19.98
2018-09-25T12:42:15.130Z,19.86
2018-09-25T12:43:24.948Z,19.85
2018-09-25T12:44:35.027Z,19.79
2018-09-25T12:45:45.132Z,19.87
2018-09-25T12:46:55.272Z,19.83
2018-09-25T12:48:06.848Z,20
2018-09-25T12:49:16.949Z,19.98
2018-09-25T12:50:27.013Z,19.92
2018-09-25T12:51:37.081Z,19.92
2018-09-25T12:52:47.217Z,19.95
2018-09-25T12:53:57.300Z,19.95
2018-09-25T12:55:07.391Z,19.87
2018-09-25T12:56:17.469Z,19.74
2018-09-25T12:57:27.558Z,19.78
2018-09-25T12:58:37.651Z,19.61
2018-09-25T12:59:47.838Z,19.61
2018-09-25T13:00:57.933Z,19.67
2018-09-25T13:02:08.455Z,19.87
2018-09-25T13:03:18.550Z,20.2
2018-09-25T13:04:28.681Z,20.46
2018-09-25T13:05:38.774Z,20.61
2018-09-25T13:06:48.962Z,20.78
2018-09-25T13:07:59.051Z,20.98
2018-09-25T13:09:10.980Z,21.15
2018-09-25T13:10:21.061Z,21.09
2018-09-25T13:11:31.136Z,21.09
2018-09-25T13:12:41.222Z,20.91
2018-09-25T13:13:51.315Z,20.51
2018-09-25T13:15:01.309Z,20.25
2018-09-25T13:16:11.717Z,19.95
2018-09-25T13:17:21.537Z,20.15
2018-09-25T13:18:31.417Z,20.19
2018-09-25T13:19:41.480Z,20.35
2018-09-25T13:20:51.315Z,20.4
2018-09-25T13:22:01.398Z,19.95
2018-09-25T13:23:11.223Z,19.55
2018-09-25T13:24:21.382Z,19.05
2018-09-25T13:25:31.480Z,18.74
2018-09-25T13:26:41.575Z,18.32
2018-09-25T13:27:51.703Z,18.17
2018-09-25T13:29:04.176Z,18.06
2018-09-25T13:30:14.243Z,17.9
2018-09-25T13:31:24.324Z,17.74
2018-09-25T13:32:34.175Z,17.8
2018-09-25T13:33:44.315Z,17.86
2018-09-25T13:34:54.410Z,17.95
2018-09-25T13:36:04.239Z,18.1
2018-09-25T13:37:14.327Z,18.13
2018-09-25T13:38:24.400Z,18.32
2018-09-25T13:39:34.530Z,18.51
2018-09-25T13:40:44.614Z,18.65
2018-09-25T13:41:54.691Z,18.97
2018-09-25T13:43:04.506Z,18.96
2018-09-25T13:44:15.087Z,18.9
2018-09-25T13:45:24.990Z,18.78
2018-09-25T13:46:35.080Z,18.51
2018-09-25T13:47:44.876Z,18.34
2018-09-25T13:48:54.965Z,18.2
2018-09-25T13:50:05.175Z,17.96
2018-09-25T13:51:15.269Z,17.8
2018-09-25T13:52:25.354Z,17.66
2018-09-25T13:53:35.445Z,17.54
2018-09-25T13:54:45.511Z,17.31
2018-09-25T13:55:55.659Z,17.27
2018-09-25T13:57:08.150Z,17.22
2018-09-25T13:58:18.283Z,17.18
2018-09-25T13:59:28.368Z,17.21
2018-09-25T14:00:38.448Z,17.24
2018-09-25T14:01:48.544Z,17.22
2018-09-25T14:02:58.711Z,17.32
2018-09-25T14:04:08.540Z,17.54
2018-09-25T14:05:18.623Z,17.52
2018-09-25T14:06:28.451Z,17.63
2018-09-25T14:07:38.548Z,17.52
2018-09-25T14:08:48.618Z,17.54
2018-09-25T14:09:58.712Z,17.47
2018-09-25T14:11:11.013Z,17.45
2018-09-25T14:12:21.127Z,17.49
2018-09-25T14:13:31.234Z,17.73
2018-09-25T14:14:41.036Z,17.69
2018-09-25T14:15:51.099Z,17.54
2018-09-25T14:17:03.543Z,17.47
2018-09-25T14:18:13.618Z,17.36
2018-09-25T14:19:23.443Z,17.15
2018-09-25T14:20:33.589Z,16.94
2018-09-25T14:21:43.392Z,16.85
2018-09-25T14:22:53.473Z,16.81
2018-09-25T14:24:03.284Z,16.76
2018-09-25T14:25:13.349Z,16.69
2018-09-25T14:26:23.151Z,16.63
2018-09-25T14:27:33.328Z,16.85
2018-09-25T14:28:43.434Z,17.07
2018-09-25T14:29:53.642Z,17.2
2018-09-25T14:31:03.722Z,17.32
2018-09-25T14:32:13.285Z,17.4
2018-09-25T14:33:23.369Z,17.57
2018-09-25T14:34:33.189Z,17.71
2018-09-25T14:35:43.428Z,17.83
2018-09-25T14:36:53.001Z,18.01
2018-09-25T14:38:03.093Z,18.08
2018-09-25T14:39:13.217Z,18.16
2018-09-25T14:40:23.085Z,18.36
2018-09-25T14:41:33.217Z,18.56
2018-09-25T14:42:43.319Z,18.61
2018-09-25T14:43:53.411Z,18.54
2018-09-25T14:45:04.935Z,18.53
2018-09-25T14:46:15.035Z,18.26
2018-09-25T14:47:25.126Z,18.2
2018-09-25T14:48:35.363Z,18.21
2018-09-25T14:49:45.325Z,18.29
2018-09-25T14:50:55.395Z,18.34
2018-09-25T14:52:05.229Z,18.5
2018-09-25T14:53:15.319Z,18.26
2018-09-25T14:54:25.564Z,18.17
2018-09-25T14:55:35.467Z,18.19
2018-09-25T14:56:45.769Z,18.05
2018-09-25T14:57:55.865Z,17.95
2018-09-25T14:59:05.956Z,17.8
2018-09-25T15:00:16.034Z,17.76
2018-09-25T15:01:25.384Z,17.66
2018-09-25T15:02:35.473Z,17.55
2018-09-25T15:03:45.275Z,17.55
2018-09-25T15:04:55.395Z,17.5
2018-09-25T15:06:05.922Z,17.71
2018-09-25T15:07:15.924Z,17.77
2018-09-25T15:08:26.220Z,17.77
2018-09-25T15:09:36.378Z,17.69
2018-09-25T15:10:46.547Z,17.58
2018-09-25T15:11:56.928Z,17.54
2018-09-25T15:13:07.085Z,17.62
2018-09-25T15:14:17.187Z,17.58
2018-09-25T15:15:27.277Z,17.57
2018-09-25T15:16:37.097Z,17.55
2018-09-25T15:17:47.290Z,17.52
2018-09-25T15:18:57.171Z,17.43
2018-09-25T15:20:07.304Z,17.31
2018-09-25T15:21:17.706Z,17.2
2018-09-25T15:22:28.403Z,17.09
2018-09-25T15:23:38.252Z,16.94
2018-09-25T15:24:48.308Z,16.65
2018-09-25T15:25:58.402Z,16.58
2018-09-25T15:27:09.147Z,16.47
2018-09-25T15:28:19.220Z,16.33
2018-09-25T15:29:29.313Z,16.29
2018-09-25T15:30:39.460Z,16.21
2018-09-25T15:31:49.520Z,16.13
2018-09-25T15:32:59.624Z,16.08
2018-09-25T15:34:09.754Z,15.99
2018-09-25T15:35:19.906Z,15.95
2018-09-25T15:36:30.663Z,15.92
2018-09-25T15:37:40.732Z,15.84
2018-09-25T15:38:50.818Z,15.74